avis per tempestes more information blitzortung!


avis per Pluja more information rain snow radar


Visita la nostra xarxa de llocs de meteo:

Template documentation
and downloads

And another site



Thunderstorms From: 18-09-2018 09:00 Until: 19-09-2018 20:59 warning for: Thunderstorms Level: Yellow info button
Rain From: 18-09-2018 09:00 Until: 19-09-2018 20:59 warning for: Rain Level: Yellow info button

Pagina Historial Weather Underground text

Diari Resum May 9, 2017 Unitats:  Imperial    Mètric   Tant
« Previous Dia
SegĂźent Dia »
Diari Setmana Mensual Anual Personalitzada
  Maxima: Minima: Media:
Temperatura: TemperatureC °F 10.2 °F 17.8 °F
Punt de rosada: DewpointC °F 6.3 °F 10.3 °F
Humitat: Humidity % 36 % 63 %
Wind Speed: WindSpeedKMH mph 0.0 mph 6.7 mph
RĂ fegues de vent: WindSpeedGustKMH mph - -
Vent:- - SE
Pression baro: PressurehPa in 1006.0 in -
Precipitacions: 0.0 in    
Historical Graphs
 
 
Dades de taula per May 9, 2017
Temps Temperatura Punt de rosada Pression baro Vent Wind Speed RĂ fegues de vent Humitat Rainfall Rate (Hourly)
TemperatureC °F DewpointC °F PressurehPa in Calm     Humidity % HourlyPrecipMM in
00:00 14.6 °F 8.1 °F 1015.8 in Calm     65 % 0.0 in
00:05 14.5 °F 8.0 °F 1015.8 in Calm     65 % 0.0 in
00:10 10.9 °F 6.8 °F 1013.8 in Calm   3.2 mph 76 % 0.0 in
00:20 10.9 °F 6.8 °F 1013.8 in SW 1.6 mph 1.6 mph 76 % 0.0 in
00:30 10.8 °F 6.7 °F 1013.8 in Calm     76 % 0.0 in
00:40 10.7 °F 6.7 °F 1013.8 in Calm     76 % 0.0 in
00:50 10.6 °F 6.6 °F 1013.8 in SW 1.6 mph 1.6 mph 76 % 0.0 in
01:00 10.6 °F 6.6 °F 1013.8 in WSW 1.6 mph 3.2 mph 76 % 0.0 in
01:10 10.5 °F 6.6 °F 1013.8 in Calm     77 % 0.0 in
01:20 10.5 °F 6.6 °F 1013.8 in Calm     77 % 0.0 in
01:30 10.6 °F 6.7 °F 1013.8 in Calm     77 % 0.0 in
01:40 10.5 °F 6.6 °F 1013.8 in Calm     77 % 0.0 in
01:50 10.2 °F 6.3 °F 1012.8 in Calm     77 % 0.0 in
02:00 10.2 °F 6.3 °F 1012.8 in WSW 1.6 mph 3.2 mph 77 % 0.0 in
02:10 10.2 °F 6.6 °F 1013.8 in SW 1.6 mph 3.2 mph 78 % 0.0 in
02:20 10.3 °F 6.6 °F 1014.8 in SW 1.6 mph 3.2 mph 78 % 0.0 in
02:30 10.4 °F 6.7 °F 1014.8 in SW 1.6 mph 1.6 mph 78 % 0.0 in
02:40 10.6 °F 6.9 °F 1012.8 in SW 1.6 mph 3.2 mph 78 % 0.0 in
02:50 11.1 °F 7.4 °F 1013.8 in SW 1.6 mph 3.2 mph 78 % 0.0 in
03:00 11.5 °F 7.6 °F 1013.8 in SW 1.6 mph 4.8 mph 77 % 0.0 in
03:10 12.1 °F 8.2 °F 1013.8 in Calm   3.2 mph 77 % 0.0 in
03:20 12.7 °F 8.8 °F 1013.8 in Calm   3.2 mph 77 % 0.0 in
03:30 13.8 °F 9.7 °F 1013.8 in Calm   1.6 mph 76 % 0.0 in
03:40 13.4 °F 9.1 °F 1013.8 in SW 3.2 mph 3.2 mph 75 % 0.0 in
03:50 14.1 °F 9.7 °F 1013.8 in Calm   3.2 mph 75 % 0.0 in
04:00 14.8 °F 10.0 °F 1013.8 in SSW 1.6 mph 3.2 mph 73 % 0.0 in
04:10 14.6 °F 9.6 °F 1013.8 in ESE 3.2 mph 6.4 mph 72 % 0.0 in
04:20 14.9 °F 9.7 °F 1013.8 in ESE 3.2 mph 4.8 mph 71 % 0.0 in
04:30 15.4 °F 10.2 °F 1013.8 in East 3.2 mph 3.2 mph 71 % 0.0 in
04:40 15.7 °F 10.2 °F 1013.8 in East 3.2 mph 6.4 mph 70 % 0.0 in
04:50 16.3 °F 10.6 °F 1013.8 in East 3.2 mph 8.0 mph 69 % 0.0 in
05:00 16.9 °F 10.9 °F 1013.8 in ENE 4.8 mph 6.4 mph 68 % 0.0 in
05:10 16.8 °F 10.8 °F 1013.8 in East 3.2 mph 9.7 mph 68 % 0.0 in
05:20 17.5 °F 11.3 °F 1013.8 in ESE 3.2 mph 9.7 mph 67 % 0.0 in
05:30 17.6 °F 10.9 °F 1013.8 in East 4.8 mph 6.4 mph 65 % 0.0 in
05:40 18.5 °F 11.8 °F 1013.8 in ESE 4.8 mph 4.8 mph 65 % 0.0 in
05:50 18.5 °F 11.6 °F 1013.8 in ESE 4.8 mph 8.0 mph 64 % 0.0 in
06:00 18.2 °F 11.1 °F 1013.8 in ESE 4.8 mph 9.7 mph 63 % 0.0 in
11:02 18.8 °F 11.6 °F 1013.8 in ENE 6.4 mph 6.4 mph 63 % 0.0 in
11:07 18.5 °F 11.3 °F 1013.8 in NNE 9.3 mph 9.3 mph 63 % 0.0 in
11:12 18.7 °F 11.3 °F 1013.8 in SE 9.3 mph 9.3 mph 62 % 0.0 in
11:17 19.1 °F 11.7 °F 1013.8 in NE 5.6 mph 5.6 mph 62 % 0.0 in
11:22 19.1 °F 11.2 °F 1013.8 in SE 11.1 mph 11.1 mph 60 % 0.0 in
11:27 18.9 °F 11.4 °F 1013.8 in ENE 7.4 mph 7.4 mph 62 % 0.0 in
11:32 19.6 °F 11.9 °F 1013.8 in East 7.4 mph 7.4 mph 61 % 0.0 in
11:37 19.6 °F 11.6 °F 1013.8 in ESE 5.8 mph 5.8 mph 60 % 0.0 in
11:42 19.3 °F 11.3 °F 1012.8 in ESE 4.2 mph 4.2 mph 60 % 0.0 in
11:47 19.8 °F 11.8 °F 1012.8 in ENE 5.6 mph 5.6 mph 60 % 0.0 in
11:52 19.5 °F 11.3 °F 1012.8 in East 9.3 mph 9.3 mph 59 % 0.0 in
11:57 20.3 °F 11.8 °F 1012.8 in SSE 6.1 mph 6.1 mph 58 % 0.0 in
12:02 20.5 °F 11.9 °F 1012.8 in ESE 5.6 mph 5.6 mph 58 % 0.0 in
12:07 19.9 °F 11.7 °F 1012.8 in East 7.4 mph 7.4 mph 59 % 0.0 in
12:12 20.3 °F 11.8 °F 1011.7 in SSE 9.3 mph 9.3 mph 58 % 0.0 in
12:17 20.5 °F 11.7 °F 1011.7 in ESE 7.9 mph 7.9 mph 57 % 0.0 in
12:22 20.3 °F 11.5 °F 1011.7 in NNE 11.1 mph 11.1 mph 57 % 0.0 in
12:27 20.8 °F 11.9 °F 1011.7 in ENE 6.1 mph 6.1 mph 57 % 0.0 in
12:32 21.4 °F 12.3 °F 1011.7 in SSE 5.6 mph 5.6 mph 56 % 0.0 in
12:37 21.2 °F 11.5 °F 1011.7 in ESE 9.3 mph 9.3 mph 54 % 0.0 in
12:42 20.9 °F 11.5 °F 1011.7 in South 13.0 mph 13.0 mph 55 % 0.0 in
12:47 20.6 °F 11.5 °F 1011.7 in ESE 11.1 mph 11.1 mph 56 % 0.0 in
12:52 20.5 °F 11.2 °F 1011.7 in East 11.1 mph 11.1 mph 55 % 0.0 in
12:57 20.4 °F 11.1 °F 1011.7 in East 14.8 mph 14.8 mph 55 % 0.0 in
13:02 20.3 °F 10.9 °F 1011.7 in East 13.0 mph 13.0 mph 55 % 0.0 in
13:07 20.4 °F 11.1 °F 1011.7 in ESE 16.7 mph 16.7 mph 55 % 0.0 in
13:12 20.7 °F 11.3 °F 1011.7 in SSE 14.8 mph 14.8 mph 55 % 0.0 in
13:17 20.4 °F 11.1 °F 1011.7 in East 18.5 mph 18.5 mph 55 % 0.0 in
13:22 20.3 °F 10.9 °F 1011.7 in East 16.7 mph 16.7 mph 55 % 0.0 in
13:27 20.2 °F 10.9 °F 1011.7 in ENE 18.5 mph 18.5 mph 55 % 0.0 in
13:32 20.5 °F 11.2 °F 1011.7 in ESE 11.1 mph 11.1 mph 55 % 0.0 in
13:37 20.7 °F 11.6 °F 1011.7 in SSE 13.0 mph 13.0 mph 56 % 0.0 in
13:42 21.0 °F 11.6 °F 1011.7 in SSE 11.1 mph 11.1 mph 55 % 0.0 in
13:47 20.9 °F 11.5 °F 1011.7 in ESE 13.0 mph 13.0 mph 55 % 0.0 in
13:52 20.8 °F 11.4 °F 1011.7 in SE 13.0 mph 13.0 mph 55 % 0.0 in
13:53 20.8 °F 11.4 °F 1011.7 in ESE 14.8 mph 14.8 mph 55 % 0.0 in
13:58 20.3 °F 10.9 °F 1011.7 in SSW 13.0 mph 13.0 mph 55 % 0.0 in
14:03 20.4 °F 11.1 °F 1011.7 in SE 14.8 mph 14.8 mph 55 % 0.0 in
14:08 20.4 °F 10.8 °F 1011.7 in SE 14.8 mph 14.8 mph 54 % 0.0 in
14:13 20.4 °F 11.1 °F 1010.7 in SE 14.8 mph 14.8 mph 55 % 0.0 in
14:18 20.5 °F 11.2 °F 1010.7 in SE 7.4 mph 7.4 mph 55 % 0.0 in
14:23 20.5 °F 10.9 °F 1010.7 in East 16.7 mph 16.7 mph 54 % 0.0 in
14:28 20.7 °F 11.3 °F 1010.0 in ESE 7.4 mph 7.4 mph 55 % 0.0 in
14:33 20.8 °F 11.4 °F 1010.0 in ENE 9.3 mph 9.3 mph 55 % 0.0 in
14:38 20.6 °F 10.9 °F 1010.0 in NNE 14.8 mph 14.8 mph 54 % 0.0 in
14:43 20.9 °F 11.5 °F 1010.0 in NNE 7.9 mph 7.9 mph 55 % 0.0 in
14:48 20.7 °F 11.1 °F 1010.0 in SE 14.8 mph 14.8 mph 54 % 0.0 in
14:53 21.0 °F 11.1 °F 1010.0 in ESE 13.0 mph 13.0 mph 53 % 0.0 in
14:58 20.8 °F 11.2 °F 1009.0 in ENE 16.7 mph 16.7 mph 54 % 0.0 in
15:03 20.8 °F 11.2 °F 1009.0 in SSE 19.5 mph 19.5 mph 54 % 0.0 in
15:08 21.0 °F 11.1 °F 1009.0 in ESE 14.8 mph 14.8 mph 53 % 0.0 in
15:13 21.0 °F 11.1 °F 1010.0 in ENE 11.1 mph 11.1 mph 53 % 0.0 in
15:18 21.3 °F 11.3 °F 1010.0 in SSE 7.4 mph 7.4 mph 53 % 0.0 in
15:23 21.2 °F 10.9 °F 1010.0 in ENE 20.4 mph 20.4 mph 52 % 0.0 in
15:28 21.5 °F 11.2 °F 1010.0 in ESE 9.3 mph 9.3 mph 52 % 0.0 in
15:33 21.3 °F 11.3 °F 1010.0 in ENE 11.4 mph 11.4 mph 53 % 0.0 in
15:38 21.4 °F 11.1 °F 1010.0 in NNE 7.4 mph 7.4 mph 52 % 0.0 in
15:43 21.9 °F 11.9 °F 1010.0 in SSW 11.1 mph 11.1 mph 53 % 0.0 in
15:48 22.7 °F 11.4 °F 1010.0 in SSW 7.4 mph 7.4 mph 49 % 0.0 in
15:50 23.1 °F 11.5 °F 1010.0 in SW 3.7 mph 3.7 mph 48 % 0.0 in
15:55 23.8 °F 11.8 °F 1010.0 in South 5.6 mph 5.6 mph 47 % 0.0 in
16:00 24.0 °F 11.7 °F 1010.0 in West 7.4 mph 7.4 mph 46 % 0.0 in
16:05 24.0 °F 10.7 °F 1010.0 in SW 11.1 mph 11.1 mph 43 % 0.0 in
16:10 24.3 °F 11.3 °F 1010.0 in SW 9.3 mph 9.3 mph 44 % 0.0 in
16:15 24.5 °F 10.4 °F 1010.0 in SSW 7.4 mph 7.4 mph 41 % 0.0 in
16:20 24.2 °F 9.7 °F 1010.0 in South 9.3 mph 9.3 mph 40 % 0.0 in
16:25 24.4 °F 10.3 °F 1010.0 in SW 9.7 mph 9.7 mph 41 % 0.0 in
16:30 24.3 °F 9.8 °F 1009.0 in WSW 11.1 mph 11.1 mph 40 % 0.0 in
16:35 24.4 °F 9.6 °F 1009.0 in WSW 7.4 mph 7.4 mph 39 % 0.0 in
16:40 24.9 °F 10.0 °F 1009.0 in South 7.4 mph 7.4 mph 39 % 0.0 in
16:45 24.4 °F 9.2 °F 1009.0 in SW 5.6 mph 5.6 mph 38 % 0.0 in
16:50 24.4 °F 9.2 °F 1009.0 in SW 9.3 mph 9.3 mph 38 % 0.0 in
16:55 24.3 °F 9.1 °F 1009.0 in West 9.3 mph 9.3 mph 38 % 0.0 in
17:00 24.0 °F 8.8 °F 1008.0 in South 6.1 mph 6.1 mph 38 % 0.0 in
17:05 24.0 °F 8.4 °F 1008.0 in SW 9.3 mph 9.3 mph 37 % 0.0 in
17:10 23.9 °F 7.9 °F 1008.0 in West 5.6 mph 5.6 mph 36 % 0.0 in
17:15 23.8 °F 8.2 °F 1009.0 in SW 7.4 mph 7.4 mph 37 % 0.0 in
17:20 23.1 °F 8.4 °F 1009.0 in SSW 9.3 mph 9.3 mph 39 % 0.0 in
17:25 22.2 °F 9.4 °F 1009.0 in ENE 9.7 mph 9.7 mph 44 % 0.0 in
17:30 21.6 °F 9.8 °F 1008.0 in East 11.1 mph 11.1 mph 47 % 0.0 in
17:35 21.0 °F 9.6 °F 1008.0 in NE 13.0 mph 13.0 mph 48 % 0.0 in
17:40 21.1 °F 9.9 °F 1008.0 in SE 10.3 mph 10.3 mph 49 % 0.0 in
17:45 20.9 °F 10.4 °F 1008.0 in ESE 11.1 mph 11.1 mph 51 % 0.0 in
17:50 20.8 °F 10.3 °F 1008.0 in ESE 14.8 mph 14.8 mph 51 % 0.0 in
17:51 20.8 °F 10.3 °F 1008.0 in ESE 16.7 mph 16.7 mph 51 % 0.0 in
17:56 20.7 °F 10.5 °F 1008.0 in SE 13.7 mph 13.7 mph 52 % 0.0 in
18:01 20.7 °F 10.5 °F 1008.0 in ESE 16.7 mph 16.7 mph 52 % 0.0 in
18:06 20.5 °F 10.6 °F 1008.0 in SSW 13.0 mph 13.0 mph 53 % 0.0 in
18:11 21.1 °F 10.6 °F 1008.0 in ESE 5.6 mph 5.6 mph 51 % 0.0 in
18:16 21.7 °F 10.8 °F 1008.0 in South 3.7 mph 3.7 mph 50 % 0.0 in
18:21 22.0 °F 10.8 °F 1008.0 in South 7.4 mph 7.4 mph 49 % 0.0 in
18:26 22.3 °F 10.4 °F 1007.0 in SSE 7.4 mph 7.4 mph 47 % 0.0 in
18:31 22.4 °F 9.6 °F 1007.0 in SSW 5.6 mph 5.6 mph 44 % 0.0 in
18:36 22.0 °F 9.8 °F 1007.0 in South 9.3 mph 9.3 mph 46 % 0.0 in
18:41 21.3 °F 9.8 °F 1008.0 in SE 9.3 mph 9.3 mph 48 % 0.0 in
18:46 20.0 °F 9.6 °F 1008.0 in ENE 14.8 mph 14.8 mph 51 % 0.0 in
18:51 19.7 °F 9.8 °F 1008.0 in ENE 9.3 mph 9.3 mph 53 % 0.0 in
18:56 19.3 °F 9.8 °F 1008.0 in ESE 16.7 mph 16.7 mph 54 % 0.0 in
19:01 19.1 °F 10.1 °F 1008.0 in ESE 9.3 mph 10.0 mph 56 % 0.0 in
19:06 18.6 °F 10.4 °F 1008.0 in ESE 11.1 mph 11.1 mph 59 % 0.0 in
19:11 18.5 °F 10.1 °F 1008.0 in ESE 9.5 mph 9.5 mph 58 % 0.0 in
19:16 18.4 °F 10.2 °F 1008.0 in ESE 16.4 mph 16.4 mph 59 % 0.0 in
19:20 15.4 °F 11.2 °F 1009.0 in NE 3.2 mph 4.8 mph 76 % 0.0 in
19:21 18.3 °F 10.4 °F 1008.0 in SSW 9.3 mph 9.3 mph 60 % 0.0 in
19:27 18.3 °F 10.4 °F 1008.0 in ESE 13.0 mph 13.0 mph 60 % 0.0 in
19:30 15.4 °F 11.4 °F 1009.0 in NE 1.6 mph 4.8 mph 77 % 0.0 in
19:32 18.2 °F 10.3 °F 1008.0 in ESE 11.1 mph 11.1 mph 60 % 0.0 in
19:37 18.3 °F 10.4 °F 1008.0 in SSE 5.6 mph 5.6 mph 60 % 0.0 in
19:40 15.4 °F 11.4 °F 1008.0 in Calm   1.6 mph 77 % 0.0 in
19:42 18.2 °F 10.1 °F 1008.0 in ESE 9.3 mph 9.3 mph 59 % 0.0 in
19:47 18.2 °F 10.1 °F 1008.0 in South 5.0 mph 5.0 mph 59 % 0.0 in
19:50 15.4 °F 11.6 °F 1009.0 in Calm   3.2 mph 78 % 0.0 in
19:52 18.1 °F 9.9 °F 1008.0 in South 7.4 mph 7.4 mph 59 % 0.0 in
19:53 18.1 °F 9.9 °F 1008.0 in SSE 7.4 mph 7.4 mph 59 % 0.0 in
19:58 18.1 °F 9.7 °F 1008.0 in SE 5.6 mph 5.6 mph 58 % 0.0 in
20:00 15.3 °F 11.5 °F 1009.0 in Calm   3.2 mph 78 % 0.0 in
20:03 18.1 °F 9.7 °F 1008.0 in ESE 5.6 mph 5.6 mph 58 % 0.0 in
20:08 17.8 °F 9.7 °F 1008.0 in ESE 7.4 mph 7.4 mph 59 % 0.0 in
20:10 15.2 °F 11.4 °F 1009.0 in West 1.6 mph 3.2 mph 78 % 0.0 in
20:13 17.5 °F 9.7 °F 1008.0 in East 7.4 mph 7.4 mph 60 % 0.0 in
20:18 17.3 °F 9.7 °F 1008.0 in ESE 9.3 mph 9.3 mph 61 % 0.0 in
20:20 15.2 °F 11.4 °F 1008.0 in Calm   1.6 mph 78 % 0.0 in
20:23 17.2 °F 10.1 °F 1008.0 in ESE 8.7 mph 8.7 mph 63 % 0.0 in
20:28 17.0 °F 10.1 °F 1008.0 in East 7.4 mph 7.4 mph 64 % 0.0 in
20:30 15.2 °F 11.4 °F 1008.0 in Calm     78 % 0.0 in
20:33 16.9 °F 10.5 °F 1008.0 in ESE 9.3 mph 9.3 mph 66 % 0.0 in
20:38 16.9 °F 10.3 °F 1008.0 in SE 3.7 mph 3.7 mph 65 % 0.0 in
20:40 15.1 °F 11.3 °F 1008.0 in Calm     78 % 0.0 in
20:43 16.8 °F 10.4 °F 1008.0 in South 1.9 mph 1.9 mph 66 % 0.0 in
20:48 16.8 °F 10.2 °F 1008.0 in WSW 3.7 mph 3.7 mph 65 % 0.0 in
20:50 15.1 °F 11.3 °F 1008.0 in NNE 3.2 mph 3.2 mph 78 % 0.0 in
20:53 16.8 °F 10.2 °F 1008.0 in Calm     65 % 0.0 in
20:58 16.8 °F 10.2 °F 1008.0 in WSW 1.9 mph   65 % 0.0 in
21:00 15.1 °F 11.5 °F 1008.0 in Calm   1.6 mph 79 % 0.0 in
21:03 16.8 °F 10.4 °F 1008.0 in NE 2.3 mph   66 % 0.0 in
21:08 16.6 °F 10.2 °F 1008.0 in NNE 3.7 mph 3.7 mph 66 % 0.0 in
21:10 15.0 °F 11.4 °F 1008.0 in Calm   3.2 mph 79 % 0.0 in
21:13 16.5 °F 10.3 °F 1009.0 in NE 2.3 mph 2.3 mph 67 % 0.0 in
21:18 16.5 °F 10.3 °F 1009.0 in NNE 5.6 mph 5.6 mph 67 % 0.0 in
21:20 14.9 °F 11.1 °F 1008.0 in ENE 1.6 mph 3.2 mph 78 % 0.0 in
21:23 16.5 °F 10.3 °F 1009.0 in NNE 5.6 mph 5.6 mph 67 % 0.0 in
21:25 16.4 °F 10.3 °F 1008.0 in NNE 5.6 mph 5.6 mph 67 % 0.0 in
21:30 16.5 °F 10.3 °F 1008.0 in NE 3.7 mph 3.7 mph 67 % 0.0 in
21:35 16.4 °F 10.5 °F 1008.0 in NE 5.6 mph 5.6 mph 68 % 0.0 in
21:40 16.3 °F 10.6 °F 1008.0 in NNE 7.4 mph 7.4 mph 69 % 0.0 in
21:46 16.2 °F 10.5 °F 1008.0 in NNE 6.9 mph 6.9 mph 69 % 0.0 in
21:50 14.6 °F 11.0 °F 1007.0 in Calm     79 % 0.0 in
21:51 16.2 °F 10.5 °F 1008.0 in ENE 7.4 mph 7.4 mph 69 % 0.0 in
21:56 16.1 °F 10.8 °F 1007.0 in ESE 7.4 mph 7.4 mph 71 % 0.0 in
22:00 14.6 °F 11.0 °F 1007.0 in Calm     79 % 0.0 in
22:01 16.1 °F 10.8 °F 1007.0 in ENE 9.3 mph 9.3 mph 71 % 0.0 in
22:06 16.0 °F 10.7 °F 1007.0 in ESE 9.3 mph 9.3 mph 71 % 0.0 in
22:10 14.6 °F 11.0 °F 1007.0 in East 1.6 mph 1.6 mph 79 % 0.0 in
22:12 15.9 °F 10.8 °F 1008.0 in ENE 9.3 mph 9.3 mph 72 % 0.0 in
22:17 15.9 °F 11.1 °F 1008.0 in ESE 7.4 mph 7.4 mph 73 % 0.0 in
22:20 14.5 °F 10.9 °F 1007.0 in Calm   1.6 mph 79 % 0.0 in
22:22 15.8 °F 10.9 °F 1008.0 in East 7.4 mph 7.6 mph 73 % 0.0 in
22:27 15.8 °F 11.2 °F 1008.0 in ESE 11.1 mph 11.1 mph 74 % 0.0 in
22:30 14.5 °F 10.9 °F 1007.0 in Calm   3.2 mph 79 % 0.0 in
22:32 15.7 °F 11.1 °F 1008.0 in East 9.3 mph 9.3 mph 74 % 0.0 in
22:37 15.7 °F 11.5 °F 1008.0 in ENE 9.3 mph 9.3 mph 76 % 0.0 in
22:40 14.4 °F 10.8 °F 1006.0 in West 1.6 mph 3.2 mph 79 % 0.0 in
22:42 15.7 °F 11.5 °F 1008.0 in East 7.4 mph 7.4 mph 76 % 0.0 in
22:47 15.6 °F 11.4 °F 1008.0 in East 5.6 mph 5.6 mph 76 % 0.0 in
22:50 14.0 °F 10.6 °F 1007.0 in SW 1.6 mph 4.8 mph 80 % 0.0 in
22:52 15.6 °F 11.4 °F 1008.0 in ENE 4.7 mph 4.7 mph 76 % 0.0 in
22:57 15.6 °F 11.4 °F 1008.0 in ENE 5.6 mph 5.6 mph 76 % 0.0 in
23:00 14.0 °F 10.6 °F 1007.0 in SW 1.6 mph 3.2 mph 80 % 0.0 in
23:03 15.6 °F 11.4 °F 1008.0 in Calm     76 % 0.0 in
23:08 15.6 °F 11.4 °F 1008.0 in Calm     76 % 0.0 in
23:10 14.0 °F 10.6 °F 1007.0 in Calm   1.6 mph 80 % 0.0 in
23:13 15.6 °F 11.4 °F 1009.0 in Calm     76 % 0.0 in
23:18 15.6 °F 11.4 °F 1009.0 in SE 1.9 mph 1.9 mph 76 % 0.0 in
23:20 14.0 °F 10.6 °F 1007.0 in Calm   1.6 mph 80 % 0.0 in
23:23 15.5 °F 11.3 °F 1009.0 in East 7.4 mph 7.4 mph 76 % 0.0 in
23:28 15.6 °F 11.4 °F 1009.0 in East 4.7 mph 4.7 mph 76 % 0.0 in
23:30 13.7 °F 10.3 °F 1007.0 in West 1.6 mph 3.2 mph 80 % 0.0 in
23:33 15.5 °F 11.3 °F 1009.0 in ENE 3.7 mph 3.7 mph 76 % 0.0 in
23:38 15.5 °F 11.5 °F 1009.0 in NE 3.7 mph 3.7 mph 77 % 0.0 in
23:40 13.7 °F 10.5 °F 1007.0 in West 1.6 mph 3.2 mph 81 % 0.0 in
23:43 15.5 °F 11.3 °F 1009.0 in NNE 3.7 mph 3.7 mph 76 % 0.0 in
23:48 15.5 °F 11.3 °F 1009.0 in NE 1.9 mph 2.3 mph 76 % 0.0 in
23:50 13.6 °F 10.4 °F 1006.0 in North 1.6 mph 3.2 mph 81 % 0.0 in
23:53 15.5 °F 11.3 °F 1009.0 in NNE 3.7 mph 3.7 mph 76 % 0.0 in
23:59 15.5 °F 11.3 °F 1009.0 in NNE 3.7 mph 3.7 mph 76 % 0.0 in
Meteo Sesrovires
Elogis d' Weather Underground - 1.5 mb

Guio original per  Jim McMurry - jmcmurry@mwt.net Adaptat per a la plantilla per  Wim van der Kuil - Leuven-Template.eu

Trobareu la nostra informacio del temps tambe a:

Weather Underground

AWEKAS